Airfield :
LOGIN :

Register | Disclaimer

   EN    FR    IT 

 










Legend :    VFR   Marginal VFR   IFR   Intensive IFR   Very Intensive IFR
Visi :
Ceiling :
>= 8 km
>= 3000ft
5 to 8 km
1000 to 3000 ft
1500m to 5 km
500 to 1000 ft
800 to 1500m
200 to 500 ft
< 800m
< 200 ft
Symbols :   Thunderstorms  Fog  Heavy snow  Heavy precipitations  Wind > 20 kt
SIGMETs :     Misc.  Thunderstorms  Icing  Turbulence  Mountain Waves  Volcanic Ashes






- Airport Elevation : 17 ft
- IATA code : STA


EKVJ - Stauning

CURRENT METAR :
  • 131450Z AUTO 13007KT 090V150 9999 FEW012/// BKN033/// OVC057/// 17/16 Q1007 TEST

EXPIRED METARs :
  • 131420Z AUTO 12008KT 9999 FEW010/// BKN046/// 17/16 Q1007 TEST
  • 131350Z 13010KT 9999 -SHRA SCT010 BKN036 17/15 Q1007
  • 131320Z 11008KT 9999 BKN010 BKN024 17/15 Q1007
  • 131250Z 11006KT 9999 SCT010 BKN024 17/16 Q1007
  • 131220Z 11009KT 9999 -SHRA BKN008 BKN015 17/16 Q1007
  • 131150Z 10007KT 060V130 9999 BKN007 BKN014 17/16 Q1006
  • 131120Z 08007KT 050V110 9999 BKN010 17/16 Q1006
  • 131052Z 10009KT 9999 BKN007 BKN012 17/16 Q1006
  • 131020Z 10008KT 9999 -SHRA BKN007 16/15 Q1006

Expired Forecast.



MET'MAP, your aeronautical weather chart ! - Copyright ORBIFLY December 2007 - Disclaimer

ORBIFLY MET'MAP TEAM :

Programming & Development : Alexandra Zaïnal
Original concept : Baudouin d'Aumeries
Technical & hardware support : Manuel Goepfert
Assistance : Marc-Olivier Méhu




SOURCES & CREDITS :

   NOAA